createdAt,value
2018-08-03T00:00:31.471Z,79.11
2018-08-03T00:01:40.119Z,79.5
2018-08-03T00:02:48.770Z,79.31
2018-08-03T00:03:57.413Z,79.31
2018-08-03T00:05:06.064Z,79.08
2018-08-03T00:06:14.713Z,78.98
2018-08-03T00:07:23.635Z,79.08
2018-08-03T00:08:32.282Z,79.46
2018-08-03T00:09:40.931Z,79.27
2018-08-03T00:10:49.577Z,79.46
2018-08-03T00:11:58.488Z,79.66
2018-08-03T00:13:07.146Z,79.75
2018-08-03T00:14:15.789Z,79.94
2018-08-03T00:15:24.442Z,79.85
2018-08-03T00:16:33.083Z,79.94
2018-08-03T00:17:41.743Z,79.66
2018-08-03T00:18:50.386Z,79.85
2018-08-03T00:19:59.301Z,80.43
2018-08-03T00:21:07.942Z,80.71
2018-08-03T00:22:16.601Z,81.1
2018-08-03T00:23:25.248Z,81.39
2018-08-03T00:24:33.898Z,80.71
2018-08-03T00:25:42.540Z,81.58
2018-08-03T00:26:51.192Z,80.71
2018-08-03T00:28:00.115Z,81.2
2018-08-03T00:29:08.767Z,81.29
2018-08-03T00:30:17.418Z,81.25
2018-08-03T00:31:26.323Z,81.45
2018-08-03T00:32:35.239Z,81.63
2018-08-03T00:33:44.194Z,81.63
2018-08-03T00:34:52.852Z,81.54
2018-08-03T00:36:01.493Z,81.73
2018-08-03T00:37:10.144Z,81.83
2018-08-03T00:38:18.791Z,82.5
2018-08-03T00:39:27.449Z,82.02
2018-08-03T00:40:36.091Z,81.35
2018-08-03T00:41:45.009Z,82.12
2018-08-03T00:42:53.656Z,82.31
2018-08-03T00:44:02.316Z,81.73
2018-08-03T00:45:10.961Z,81.93
2018-08-03T00:46:19.606Z,82.5
2018-08-03T00:47:28.251Z,82.41
2018-08-03T00:48:36.897Z,81.83
2018-08-03T00:49:45.555Z,82.31
2018-08-03T00:50:54.200Z,82.5
2018-08-03T00:52:02.852Z,81.93
2018-08-03T00:53:11.492Z,82.41
2018-08-03T00:54:20.150Z,81.93
2018-08-03T00:55:28.795Z,82.12
2018-08-03T00:56:37.710Z,82.31
2018-08-03T00:57:46.349Z,82.27
2018-08-03T00:58:55.007Z,82.56
2018-08-03T01:00:03.657Z,82.85
2018-08-03T01:01:12.571Z,82.75
2018-08-03T01:02:21.209Z,83.14
2018-08-03T01:03:29.859Z,83.42
2018-08-03T01:04:38.512Z,83.42
2018-08-03T01:05:47.175Z,83.42
2018-08-03T01:06:55.825Z,83.33
2018-08-03T01:08:04.469Z,83.14
2018-08-03T01:09:13.383Z,83.72
2018-08-03T01:10:22.033Z,83.42
2018-08-03T01:11:30.687Z,83.33
2018-08-03T01:12:39.331Z,83.33
2018-08-03T01:13:47.981Z,83.42
2018-08-03T01:14:56.628Z,83.33
2018-08-03T01:16:05.283Z,83.52
2018-08-03T01:17:13.925Z,83.14
2018-08-03T01:18:22.580Z,83.91
2018-08-03T01:19:31.226Z,83.23
2018-08-03T01:20:39.881Z,83.52
2018-08-03T01:21:48.524Z,83.42
2018-08-03T01:22:57.171Z,83.52
2018-08-03T01:24:05.820Z,83.62
2018-08-03T01:25:14.463Z,83.91
2018-08-03T01:26:23.116Z,83.62
2018-08-03T01:27:31.764Z,83.62
2018-08-03T01:28:40.412Z,83.62
2018-08-03T01:29:49.056Z,83.62
2018-08-03T01:30:57.979Z,84.16
2018-08-03T01:32:06.629Z,84.39
2018-08-03T01:33:15.546Z,83.91
2018-08-03T01:34:24.192Z,84.34
2018-08-03T01:35:32.847Z,84.44
2018-08-03T01:36:41.507Z,84.16
2018-08-03T01:37:50.191Z,84.25
2018-08-03T01:38:59.154Z,84.54
2018-08-03T01:40:07.804Z,84.34
2018-08-03T01:41:16.454Z,84.34
2018-08-03T01:42:25.103Z,84.16
2018-08-03T01:43:33.752Z,84.73
2018-08-03T01:44:42.398Z,84.16
2018-08-03T01:45:51.050Z,84.34
2018-08-03T01:46:59.702Z,84.54
2018-08-03T01:48:08.358Z,84.34
2018-08-03T01:49:17.001Z,85.5
2018-08-03T01:50:25.649Z,85.6
2018-08-03T01:51:34.302Z,85.5
2018-08-03T01:52:42.956Z,85.4
2018-08-03T01:53:51.598Z,85.31
2018-08-03T01:55:00.251Z,84.92
2018-08-03T01:56:08.898Z,84.73
2018-08-03T01:57:17.548Z,84.83
2018-08-03T01:58:26.463Z,85.11
2018-08-03T01:59:35.110Z,85.78
2018-08-03T02:00:43.756Z,85.5
2018-08-03T02:01:52.405Z,85.69
2018-08-03T02:03:01.054Z,85.5
2018-08-03T02:04:09.703Z,86.36
2018-08-03T02:05:18.352Z,85.65
2018-08-03T02:06:27.001Z,85.55
2018-08-03T02:07:35.913Z,86.13
2018-08-03T02:08:44.563Z,86.22
2018-08-03T02:09:53.482Z,86.13
2018-08-03T02:11:02.132Z,86.04
2018-08-03T02:12:10.781Z,86.61
2018-08-03T02:13:19.437Z,86.42
2018-08-03T02:14:28.084Z,86.61
2018-08-03T02:15:36.731Z,86.42
2018-08-03T02:16:45.379Z,86.52
2018-08-03T02:17:54.028Z,86.32
2018-08-03T02:19:02.675Z,85.84
2018-08-03T02:20:11.322Z,86.99
2018-08-03T02:21:19.976Z,86.9
2018-08-03T02:22:28.627Z,86.42
2018-08-03T02:23:37.272Z,86.22
2018-08-03T02:24:46.178Z,86.22
2018-08-03T02:25:54.827Z,87.09
2018-08-03T02:27:03.476Z,86.8
2018-08-03T02:28:12.393Z,86.99
2018-08-03T02:29:21.036Z,86.99
2018-08-03T02:30:29.688Z,87.29
2018-08-03T02:31:38.335Z,86.8
2018-08-03T02:32:47.254Z,86.99
2018-08-03T02:33:56.157Z,86.8
2018-08-03T02:35:04.810Z,87.19
2018-08-03T02:36:13.465Z,87.29
2018-08-03T02:37:22.383Z,87.29
2018-08-03T02:38:31.032Z,87.09
2018-08-03T02:39:39.675Z,87.38
2018-08-03T02:40:48.863Z,87.19
2018-08-03T02:41:57.526Z,87.24
2018-08-03T02:43:06.451Z,87.76
2018-08-03T02:44:15.093Z,87.34
2018-08-03T02:45:23.739Z,87.38
2018-08-03T02:46:32.391Z,86.95
2018-08-03T02:47:41.046Z,87.24
2018-08-03T02:48:49.955Z,87.53
2018-08-03T02:49:58.616Z,87.43
2018-08-03T02:51:07.267Z,87.24
2018-08-03T02:52:15.920Z,87.38
2018-08-03T02:53:24.833Z,87.15
2018-08-03T02:54:33.485Z,87.72
2018-08-03T02:55:42.131Z,87.72
2018-08-03T02:56:50.777Z,87.62
2018-08-03T02:57:59.468Z,87.43
2018-08-03T02:59:08.079Z,87.72
2018-08-03T03:00:16.728Z,87.53
2018-08-03T03:01:25.633Z,88.2
2018-08-03T03:02:34.285Z,88.1
2018-08-03T03:03:42.934Z,88.2
2018-08-03T03:04:51.584Z,88.3
2018-08-03T03:06:00.225Z,88.3
2018-08-03T03:07:08.882Z,88.3
2018-08-03T03:08:17.527Z,88.2
2018-08-03T03:09:26.445Z,88.2
2018-08-03T03:10:35.086Z,88.68
2018-08-03T03:11:43.734Z,88.97
2018-08-03T03:12:52.385Z,88.87
2018-08-03T03:14:01.038Z,89.64
2018-08-03T03:15:09.693Z,90.22
2018-08-03T03:16:18.330Z,90.12
2018-08-03T03:17:27.250Z,89.83
2018-08-03T03:18:35.893Z,90.22
2018-08-03T03:19:44.632Z,89.83
2018-08-03T03:20:53.204Z,89.64
2018-08-03T03:22:02.128Z,90.03
2018-08-03T03:23:10.768Z,90.03
2018-08-03T03:24:19.425Z,90.03
2018-08-03T03:25:28.064Z,90.03
2018-08-03T03:26:36.714Z,89.93
2018-08-03T03:27:45.359Z,89.93
2018-08-03T03:28:54.019Z,89.74
2018-08-03T03:30:02.922Z,89.45
2018-08-03T03:31:11.842Z,90.41
2018-08-03T03:32:20.498Z,90.27
2018-08-03T03:33:29.465Z,89.89
2018-08-03T03:34:38.060Z,89.79
2018-08-03T03:35:46.702Z,89.79
2018-08-03T03:36:55.617Z,89.93
2018-08-03T03:38:04.259Z,89.83
2018-08-03T03:39:12.918Z,89.69
2018-08-03T03:40:21.826Z,89.69
2018-08-03T03:41:30.477Z,89.89
2018-08-03T03:42:39.117Z,89.98
2018-08-03T03:43:48.037Z,89.98
2018-08-03T03:44:56.940Z,90.56
2018-08-03T03:46:05.589Z,90.17
2018-08-03T03:47:14.228Z,89.98
2018-08-03T03:48:22.883Z,90.56
2018-08-03T03:49:31.795Z,90.56
2018-08-03T03:50:40.443Z,90.27
2018-08-03T03:51:49.092Z,90.08
2018-08-03T03:52:57.732Z,89.89
2018-08-03T03:54:06.651Z,90.46
2018-08-03T03:55:15.290Z,89.89
2018-08-03T03:56:23.948Z,90.08
2018-08-03T03:57:32.590Z,90.37
2018-08-03T03:58:41.244Z,90.27
2018-08-03T03:59:49.885Z,90.37
2018-08-03T04:00:58.538Z,90.17
2018-08-03T04:02:07.181Z,90.27
2018-08-03T04:03:16.091Z,90.56
2018-08-03T04:04:24.747Z,90.37
2018-08-03T04:05:33.649Z,91.04
2018-08-03T04:06:42.301Z,90.56
2018-08-03T04:07:50.949Z,90.66
2018-08-03T04:08:59.598Z,90.75
2018-08-03T04:10:08.247Z,90.56
2018-08-03T04:11:16.891Z,90.56
2018-08-03T04:12:25.914Z,90.84
2018-08-03T04:13:34.458Z,91.81
2018-08-03T04:14:43.109Z,91.33
2018-08-03T04:15:52.023Z,91.04
2018-08-03T04:17:00.671Z,90.56
2018-08-03T04:18:09.582Z,90.84
2018-08-03T04:19:18.234Z,90.94
2018-08-03T04:20:26.876Z,91.13
2018-08-03T04:21:35.528Z,90.84
2018-08-03T04:22:44.436Z,90.84
2018-08-03T04:23:53.090Z,90.75
2018-08-03T04:25:01.733Z,90.75
2018-08-03T04:26:10.382Z,90.94
2018-08-03T04:27:19.290Z,90.84
2018-08-03T04:28:28.200Z,90.84
2018-08-03T04:29:36.851Z,91.23
2018-08-03T04:30:45.499Z,90.84
2018-08-03T04:31:54.411Z,91.04
2018-08-03T04:33:03.053Z,90.94
2018-08-03T04:34:11.706Z,90.84
2018-08-03T04:35:20.354Z,91.13
2018-08-03T04:36:29.000Z,91.04
2018-08-03T04:37:37.644Z,90.84
2018-08-03T04:38:46.296Z,91.13
2018-08-03T04:39:54.947Z,90.84
2018-08-03T04:41:03.598Z,90.94
2018-08-03T04:42:12.289Z,90.94
2018-08-03T04:43:20.889Z,90.8
2018-08-03T04:44:29.537Z,90.75
2018-08-03T04:45:38.189Z,91.04
2018-08-03T04:46:46.840Z,90.94
2018-08-03T04:47:55.481Z,90.37
2018-08-03T04:49:04.130Z,90.27
2018-08-03T04:50:12.776Z,90.46
2018-08-03T04:51:21.435Z,90.31
2018-08-03T04:52:30.072Z,90.51
2018-08-03T04:53:38.721Z,90.51
2018-08-03T04:54:47.439Z,90.51
2018-08-03T04:55:56.019Z,90.51
2018-08-03T04:57:04.662Z,90.31
2018-08-03T04:58:13.313Z,90.6
2018-08-03T04:59:22.222Z,90.6
2018-08-03T05:00:30.872Z,90.8
2018-08-03T05:01:39.516Z,90.89
2018-08-03T05:02:48.164Z,90.99
2018-08-03T05:03:57.343Z,90.89
2018-08-03T05:05:05.990Z,90.89
2018-08-03T05:06:14.907Z,90.31
2018-08-03T05:07:23.551Z,91.08
2018-08-03T05:08:32.201Z,90.6
2018-08-03T05:09:40.841Z,90.8
2018-08-03T05:10:49.499Z,90.51
2018-08-03T05:11:58.142Z,90.6
2018-08-03T05:13:07.059Z,89.93
2018-08-03T05:14:15.701Z,89.93
2018-08-03T05:15:24.387Z,90.22
2018-08-03T05:16:33.002Z,89.93
2018-08-03T05:17:41.652Z,89.78
2018-08-03T05:18:50.292Z,90.03
2018-08-03T05:19:59.202Z,89.74
2018-08-03T05:21:07.858Z,89.88
2018-08-03T05:22:16.509Z,89.78
2018-08-03T05:23:25.160Z,89.98
2018-08-03T05:24:33.797Z,89.78
2018-08-03T05:25:42.716Z,90.07
2018-08-03T05:26:51.368Z,89.78
2018-08-03T05:28:00.026Z,89.88
2018-08-03T05:29:08.664Z,89.78
2018-08-03T05:30:17.317Z,89.21
2018-08-03T05:31:26.265Z,89.59
2018-08-03T05:32:34.923Z,89.78
2018-08-03T05:33:43.831Z,89.98
2018-08-03T05:34:52.483Z,89.4
2018-08-03T05:36:01.551Z,89.4
2018-08-03T05:37:10.143Z,89.44
2018-08-03T05:38:18.789Z,89.11
2018-08-03T05:39:27.439Z,88.67
2018-08-03T05:40:36.372Z,88.87
2018-08-03T05:41:44.992Z,88.57
2018-08-03T05:42:53.916Z,88.67
2018-08-03T05:44:02.561Z,88.19
2018-08-03T05:45:11.213Z,88.39
2018-08-03T05:46:19.853Z,87.62
2018-08-03T05:47:29.039Z,87.71
2018-08-03T05:48:37.683Z,87.27
2018-08-03T05:49:46.336Z,87.33
2018-08-03T05:50:54.975Z,87.27
2018-08-03T05:52:03.632Z,87.04
2018-08-03T05:53:12.278Z,87.66
2018-08-03T05:54:20.930Z,87.46
2018-08-03T05:55:29.566Z,87.08
2018-08-03T05:56:38.215Z,87.27
2018-08-03T05:57:46.870Z,87.27
2018-08-03T05:58:55.796Z,86.99
2018-08-03T06:00:04.447Z,86.79
2018-08-03T06:01:13.095Z,86.69
2018-08-03T06:02:21.738Z,86.79
2018-08-03T06:03:30.388Z,86.51
2018-08-03T06:04:39.030Z,86.41
2018-08-03T06:05:47.687Z,86.55
2018-08-03T06:06:56.329Z,85.87
2018-08-03T06:08:04.988Z,85.87
2018-08-03T06:09:13.625Z,85.87
2018-08-03T06:10:22.285Z,86.07
2018-08-03T06:11:30.932Z,85.3
2018-08-03T06:12:39.583Z,85.39
2018-08-03T06:13:48.487Z,85.2
2018-08-03T06:14:57.189Z,86.07
2018-08-03T06:16:06.052Z,85.68
2018-08-03T06:17:14.702Z,85.39
2018-08-03T06:18:23.352Z,85.05
2018-08-03T06:19:31.993Z,85.05
2018-08-03T06:20:40.663Z,85.53
2018-08-03T06:21:49.293Z,84.76
2018-08-03T06:22:57.961Z,84.38
2018-08-03T06:24:06.862Z,84.56
2018-08-03T06:25:15.782Z,83.61
2018-08-03T06:26:24.427Z,83.7
2018-08-03T06:27:33.350Z,83.8
2018-08-03T06:28:41.988Z,83.64
2018-08-03T06:29:50.639Z,82.97
2018-08-03T06:30:59.297Z,83.45
2018-08-03T06:32:07.955Z,83.07
2018-08-03T06:33:16.600Z,83.36
2018-08-03T06:34:25.244Z,82.87
2018-08-03T06:35:33.892Z,83.26
2018-08-03T06:36:42.544Z,82.68
2018-08-03T06:37:51.204Z,82.39
2018-08-03T06:38:59.848Z,81.91
2018-08-03T06:40:08.503Z,80.76
2018-08-03T06:41:17.143Z,81.57
2018-08-03T06:42:25.801Z,81.18
2018-08-03T06:43:34.446Z,81.18
2018-08-03T06:44:43.364Z,80.6
2018-08-03T06:45:52.006Z,80.79
2018-08-03T06:47:00.666Z,80.89
2018-08-03T06:48:09.317Z,79.87
2018-08-03T06:49:17.964Z,79.68
2018-08-03T06:50:26.605Z,79.49
2018-08-03T06:51:35.253Z,79.97
2018-08-03T06:52:43.908Z,78.91
2018-08-03T06:53:52.620Z,78.52
2018-08-03T06:55:01.228Z,78.75
2018-08-03T06:56:09.857Z,78.27
2018-08-03T06:57:18.514Z,77.88
2018-08-03T06:58:27.503Z,77.4
2018-08-03T06:59:36.147Z,76.86
2018-08-03T07:00:44.801Z,76.76
2018-08-03T07:01:53.441Z,76.95
2018-08-03T07:03:02.093Z,76.86
2018-08-03T07:04:10.744Z,77.15
2018-08-03T07:05:19.385Z,76.47
2018-08-03T07:06:28.038Z,76.86
2018-08-03T07:07:36.687Z,77.09
2018-08-03T07:08:45.344Z,76.42
2018-08-03T07:09:53.992Z,76.7
2018-08-03T07:11:02.902Z,76.9
2018-08-03T07:12:11.548Z,76.22
2018-08-03T07:13:20.196Z,76.7
2018-08-03T07:14:29.162Z,76.42
2018-08-03T07:15:37.785Z,76.12
2018-08-03T07:16:46.436Z,76.03
2018-08-03T07:17:55.083Z,76.32
2018-08-03T07:19:03.740Z,75.78
2018-08-03T07:20:12.534Z,75
2018-08-03T07:21:21.041Z,75.39
2018-08-03T07:22:29.687Z,75
2018-08-03T07:23:38.345Z,75
2018-08-03T07:24:46.993Z,75.2
2018-08-03T07:25:55.666Z,74.62
2018-08-03T07:27:04.622Z,74.46
2018-08-03T07:28:13.542Z,74.65
2018-08-03T07:29:22.199Z,74.36
2018-08-03T07:30:30.848Z,74.27
2018-08-03T07:31:39.612Z,74.75
2018-08-03T07:32:48.145Z,73.91
2018-08-03T07:33:56.799Z,74.11
2018-08-03T07:35:05.713Z,73.33
2018-08-03T07:36:14.367Z,72.95
2018-08-03T07:37:23.013Z,72.27
2018-08-03T07:38:31.664Z,72.95
2018-08-03T07:39:40.313Z,72.36
2018-08-03T07:40:48.969Z,72.3
2018-08-03T07:41:57.616Z,72.5
2018-08-03T07:43:06.328Z,72.4
2018-08-03T07:44:15.299Z,71.92
2018-08-03T07:45:23.951Z,71.62
2018-08-03T07:46:32.602Z,71.82
2018-08-03T07:47:41.256Z,71.82
2018-08-03T07:48:50.173Z,71.56
2018-08-03T07:49:58.816Z,71.44
2018-08-03T07:51:07.473Z,71.95
2018-08-03T07:52:16.395Z,71.66
2018-08-03T07:53:25.306Z,71.76
2018-08-03T07:54:33.953Z,71.08
2018-08-03T07:55:42.610Z,70.79
2018-08-03T07:56:51.261Z,71.08
2018-08-03T07:57:59.913Z,71.28
2018-08-03T07:59:08.555Z,71.02
2018-08-03T08:00:17.217Z,71.08
2018-08-03T08:01:25.878Z,70.54
2018-08-03T08:02:34.528Z,70.15
2018-08-03T08:03:43.174Z,69.76
2018-08-03T08:04:52.090Z,69.85
2018-08-03T08:06:00.746Z,69.85
2018-08-03T08:07:09.402Z,70.25
2018-08-03T08:08:18.058Z,69.47
2018-08-03T08:09:26.706Z,69.57
2018-08-03T08:10:35.356Z,69.7
2018-08-03T08:11:44.006Z,69.7
2018-08-03T08:12:52.672Z,69.31
2018-08-03T08:14:01.315Z,68.92
2018-08-03T08:15:10.043Z,69.31
2018-08-03T08:16:18.980Z,69.6
2018-08-03T08:17:27.641Z,70.21
2018-08-03T08:18:36.548Z,69.64
2018-08-03T08:19:45.202Z,69.34
2018-08-03T08:20:53.853Z,68.66
2018-08-03T08:22:02.515Z,68.66
2018-08-03T08:23:11.164Z,68.86
2018-08-03T08:24:19.811Z,67.89
2018-08-03T08:25:28.733Z,67.99
2018-08-03T08:26:37.383Z,67.89
2018-08-03T08:27:46.321Z,67.83
2018-08-03T08:28:54.968Z,67.89
2018-08-03T08:30:03.628Z,67.83
2018-08-03T08:31:12.271Z,67.92
2018-08-03T08:32:21.196Z,68.12
2018-08-03T08:33:29.843Z,67.83
2018-08-03T08:34:38.501Z,67.86
2018-08-03T08:35:47.411Z,67.92
2018-08-03T08:36:56.094Z,66.5
2018-08-03T08:38:05.023Z,66.6
2018-08-03T08:39:13.673Z,66.4
2018-08-03T08:40:22.315Z,66.89
2018-08-03T08:41:30.970Z,65.63
2018-08-03T08:42:39.626Z,66.21
2018-08-03T08:43:48.401Z,65.37
2018-08-03T08:44:56.939Z,65.47
2018-08-03T08:46:05.584Z,65.75
2018-08-03T08:47:14.242Z,65.75
2018-08-03T08:48:22.889Z,64.78
2018-08-03T08:49:31.551Z,64.01
2018-08-03T08:50:40.457Z,64.2
2018-08-03T08:51:49.120Z,64.2
2018-08-03T08:52:57.777Z,63.75
2018-08-03T08:54:06.432Z,64.04
2018-08-03T08:55:15.337Z,63.36
2018-08-03T08:56:23.991Z,63.26
2018-08-03T08:57:32.649Z,63.26
2018-08-03T08:58:41.569Z,62.87
2018-08-03T08:59:50.223Z,63.07
2018-08-03T09:00:58.955Z,62.68
2018-08-03T09:02:07.827Z,63.26
2018-08-03T09:03:16.476Z,62.77
2018-08-03T09:04:25.135Z,62.51
2018-08-03T09:05:33.789Z,62.03
2018-08-03T09:06:42.500Z,62.23
2018-08-03T09:07:51.808Z,60.96
2018-08-03T09:09:00.637Z,61.44
2018-08-03T09:10:09.291Z,61.54
2018-08-03T09:11:17.947Z,61.83
2018-08-03T09:12:26.596Z,60.77
2018-08-03T09:13:35.260Z,61.08
2018-08-03T09:14:44.173Z,61.18
2018-08-03T09:15:52.827Z,61.18
2018-08-03T09:17:01.736Z,60.7
2018-08-03T09:18:10.391Z,60.79
2018-08-03T09:19:19.044Z,60.11
2018-08-03T09:20:27.711Z,60.7
2018-08-03T09:21:36.365Z,61.21
2018-08-03T09:22:45.014Z,60.14
2018-08-03T09:23:53.665Z,59.36
2018-08-03T09:25:02.321Z,60.34
2018-08-03T09:26:10.974Z,59.36
2018-08-03T09:27:19.625Z,59.17
2018-08-03T09:28:28.352Z,58
2018-08-03T09:29:36.935Z,58.39
2018-08-03T09:30:45.596Z,58.49
2018-08-03T09:31:54.246Z,60.17
2018-08-03T09:33:02.905Z,60.08
2018-08-03T09:34:11.823Z,60.05
2018-08-03T09:35:20.741Z,59.3
2018-08-03T09:36:29.714Z,58.51
2018-08-03T09:37:38.307Z,58.22
2018-08-03T09:38:46.959Z,58.22
2018-08-03T09:39:55.616Z,57.93
2018-08-03T09:41:04.269Z,57.64
2018-08-03T09:42:12.923Z,58.45
2018-08-03T09:43:21.581Z,57.96
2018-08-03T09:44:30.511Z,56.01
2018-08-03T09:45:39.169Z,56.21
2018-08-03T09:46:47.822Z,55.91
2018-08-03T09:47:56.478Z,55.82
2018-08-03T09:49:05.181Z,56.79
2018-08-03T09:50:13.787Z,57.28
2018-08-03T09:51:22.445Z,57.5
2018-08-03T09:52:31.101Z,56.82
2018-08-03T09:53:40.022Z,57.21
2018-08-03T09:54:48.938Z,56.43
2018-08-03T09:55:57.595Z,55.55
2018-08-03T09:57:06.246Z,54.77
2018-08-03T09:58:14.897Z,54.77
2018-08-03T09:59:23.557Z,55.97
2018-08-03T10:00:32.217Z,53.44
2018-08-03T10:01:41.188Z,53.05
2018-08-03T10:02:50.160Z,52.66
2018-08-03T10:03:58.821Z,52.75
2018-08-03T10:05:07.474Z,52.95
2018-08-03T10:06:16.131Z,53.17
2018-08-03T10:07:24.826Z,51.51
2018-08-03T10:08:33.440Z,51.61
2018-08-03T10:09:42.092Z,51.7
2018-08-03T10:10:50.751Z,52.78
2018-08-03T10:11:59.665Z,52.97
2018-08-03T10:13:08.587Z,52.29
2018-08-03T10:14:17.242Z,52.97
2018-08-03T10:15:26.190Z,53.85
2018-08-03T10:16:34.822Z,53.95
2018-08-03T10:17:43.474Z,51.7
2018-08-03T10:18:52.127Z,51.8
2018-08-03T10:20:01.044Z,51.9
2018-08-03T10:21:09.702Z,50.14
2018-08-03T10:22:18.398Z,51.41
2018-08-03T10:23:27.009Z,51.63
2018-08-03T10:24:35.663Z,49.29
2018-08-03T10:25:44.320Z,48.71
2018-08-03T10:26:52.968Z,49
2018-08-03T10:28:01.625Z,49.49
2018-08-03T10:29:10.278Z,48.8
2018-08-03T10:30:18.942Z,49.22
2018-08-03T10:31:27.602Z,50.29
2018-08-03T10:32:36.255Z,47.56
2018-08-03T10:33:45.166Z,46.7
2018-08-03T10:34:54.129Z,46.88
2018-08-03T10:36:02.762Z,48.05
2018-08-03T10:37:11.684Z,47.87
2018-08-03T10:38:20.341Z,46.41
2018-08-03T10:39:29.265Z,43.87
2018-08-03T10:40:38.190Z,44.55
2018-08-03T10:41:46.848Z,44.16
2018-08-03T10:42:55.593Z,44.09
2018-08-03T10:44:04.585Z,44.38
2018-08-03T10:45:13.247Z,43.3
2018-08-03T10:46:22.436Z,42.71
2018-08-03T10:47:31.116Z,42.13
2018-08-03T10:48:39.789Z,42.64
2018-08-03T10:49:48.454Z,42.71
2018-08-03T10:50:57.338Z,42.35
2018-08-03T10:52:05.995Z,42.44
2018-08-03T10:53:14.654Z,42.54
2018-08-03T10:54:23.305Z,42.74
2018-08-03T10:55:31.962Z,41.86
2018-08-03T10:56:40.613Z,41.46
2018-08-03T10:57:49.282Z,41.36
2018-08-03T10:58:57.927Z,41.97
2018-08-03T11:00:06.591Z,41.78
2018-08-03T11:01:15.305Z,40.9
2018-08-03T11:02:24.275Z,41.19
2018-08-03T11:03:32.948Z,41
2018-08-03T11:04:41.579Z,41.29
2018-08-03T11:05:50.237Z,41.78
2018-08-03T11:06:59.172Z,41.39
2018-08-03T11:08:07.824Z,40.7
2018-08-03T11:09:16.476Z,40.7
2018-08-03T11:10:25.130Z,40.9
2018-08-03T11:11:33.786Z,41.09
2018-08-03T11:12:42.448Z,40.6
2018-08-03T11:13:51.142Z,40.6
2018-08-03T11:15:00.101Z,40.7
2018-08-03T11:16:08.750Z,40.8
2018-08-03T11:17:17.417Z,41.78
2018-08-03T11:18:26.077Z,41.58
2018-08-03T11:19:35.006Z,41.58
2018-08-03T11:20:43.650Z,41.29
2018-08-03T11:21:52.317Z,41.89
2018-08-03T11:23:00.972Z,41.88
2018-08-03T11:24:09.769Z,40.33
2018-08-03T11:25:18.280Z,40.33
2018-08-03T11:26:26.942Z,40.72
2018-08-03T11:27:35.599Z,40.03
2018-08-03T11:28:44.257Z,39.74
2018-08-03T11:29:52.917Z,40.23
2018-08-03T11:31:01.565Z,39.84
2018-08-03T11:32:10.226Z,39.64
2018-08-03T11:33:19.150Z,39.54
2018-08-03T11:34:27.824Z,39.47
2018-08-03T11:35:36.475Z,39.27
2018-08-03T11:36:45.136Z,38.1
2018-08-03T11:37:53.790Z,37.31
2018-08-03T11:39:02.456Z,37.63
2018-08-03T11:40:11.104Z,37.52
2018-08-03T11:41:19.773Z,37.23
2018-08-03T11:42:28.425Z,36.74
2018-08-03T11:43:37.098Z,37.45
2018-08-03T11:44:45.753Z,36.96
2018-08-03T11:45:54.669Z,36.57
2018-08-03T11:47:03.326Z,36.76
2018-08-03T11:48:11.989Z,36.76
2018-08-03T11:49:20.655Z,36.66
2018-08-03T11:50:29.304Z,36.57
2018-08-03T11:51:37.966Z,36.18
2018-08-03T11:52:46.614Z,36.37
2018-08-03T11:53:55.342Z,37.17
2018-08-03T11:55:04.266Z,36.88
2018-08-03T11:56:12.930Z,36.11
2018-08-03T11:57:21.580Z,35.52
2018-08-03T11:58:30.245Z,35.13
2018-08-03T11:59:38.901Z,35.33
2018-08-03T12:00:47.594Z,34.93
2018-08-03T12:01:56.267Z,34.25
2018-08-03T12:03:04.878Z,34.05
2018-08-03T12:04:13.537Z,34.64
2018-08-03T12:05:22.197Z,34.03
2018-08-03T12:06:30.918Z,34.52
2018-08-03T12:07:39.508Z,34.81
2018-08-03T12:08:48.172Z,35.7
2018-08-03T12:09:56.825Z,35.89
2018-08-03T12:11:05.758Z,35.11
2018-08-03T12:12:14.668Z,36.11
2018-08-03T12:13:23.597Z,35.6
2018-08-03T12:14:32.251Z,35.72
2018-08-03T12:15:40.919Z,35.13
2018-08-03T12:16:49.569Z,34.93
2018-08-03T12:17:58.244Z,34.93
2018-08-03T12:19:06.887Z,34.54
2018-08-03T12:20:15.557Z,35.52
2018-08-03T12:21:24.210Z,36.49
2018-08-03T12:22:32.867Z,36.98
2018-08-03T12:23:41.579Z,36.68
2018-08-03T12:24:50.181Z,36.96
2018-08-03T12:25:58.847Z,36.66
2018-08-03T12:27:07.501Z,37.45
2018-08-03T12:28:16.169Z,36.25
2018-08-03T12:29:25.083Z,38.21
2018-08-03T12:30:33.750Z,38.98
2018-08-03T12:31:42.773Z,39.17
2018-08-03T12:32:51.392Z,39.27
2018-08-03T12:34:00.043Z,39.17
2018-08-03T12:35:08.708Z,39.76
2018-08-03T12:36:17.370Z,39.94
2018-08-03T12:37:26.030Z,39.94
2018-08-03T12:38:34.946Z,40.43
2018-08-03T12:39:43.607Z,40.72
2018-08-03T12:40:52.269Z,40.9
2018-08-03T12:42:00.931Z,40.5
2018-08-03T12:43:09.610Z,40.7
2018-08-03T12:44:18.239Z,39.04
2018-08-03T12:45:33.837Z,39.45
2018-08-03T12:46:36.971Z,38.75
2018-08-03T12:47:45.636Z,38.08
2018-08-03T12:48:54.286Z,38.86
2018-08-03T12:50:02.951Z,39.47
2018-08-03T12:51:11.604Z,39.47
2018-08-03T12:52:20.269Z,39.27
2018-08-03T12:53:28.920Z,39.56
2018-08-03T12:54:37.855Z,39.98
2018-08-03T12:55:46.514Z,39.76
2018-08-03T12:56:55.179Z,39.59
2018-08-03T12:58:04.101Z,38.02
2018-08-03T12:59:12.801Z,37.12
2018-08-03T13:00:21.413Z,38.02
2018-08-03T13:01:30.068Z,39.56
2018-08-03T13:02:38.779Z,38.2
2018-08-03T13:03:47.405Z,38.88
2018-08-03T13:04:56.058Z,38.78
2018-08-03T13:06:04.709Z,38.98
2018-08-03T13:07:13.388Z,38.49
2018-08-03T13:08:22.554Z,38.2
2018-08-03T13:09:31.666Z,37.63
2018-08-03T13:10:40.321Z,37.43
2018-08-03T13:11:48.982Z,37.54
2018-08-03T13:12:57.638Z,37.45
2018-08-03T13:14:06.298Z,38.23
2018-08-03T13:15:14.953Z,37.94
2018-08-03T13:16:23.925Z,36.08
2018-08-03T13:17:32.582Z,35.68
2018-08-03T13:18:41.510Z,35.78
2018-08-03T13:19:50.169Z,36.29
2018-08-03T13:20:58.825Z,35.99
2018-08-03T13:22:07.483Z,37.07
2018-08-03T13:23:16.142Z,35.89
2018-08-03T13:24:24.805Z,35.7
2018-08-03T13:25:33.457Z,39.33
2018-08-03T13:26:42.116Z,39.23
2018-08-03T13:27:50.774Z,39.33
2018-08-03T13:28:59.438Z,37.17
2018-08-03T13:30:08.090Z,35.5
2018-08-03T13:31:16.751Z,36.78
2018-08-03T13:32:25.406Z,36.68
2018-08-03T13:33:34.337Z,37.17
2018-08-03T13:34:42.994Z,37.17
2018-08-03T13:35:51.918Z,35.7
2018-08-03T13:37:00.578Z,34.92
2018-08-03T13:38:09.232Z,34.93
2018-08-03T13:39:17.900Z,35.13
2018-08-03T13:40:26.819Z,36.39
2018-08-03T13:41:35.776Z,36.39
2018-08-03T13:42:44.430Z,36.39
2018-08-03T13:43:53.092Z,35.7
2018-08-03T13:45:01.759Z,39.82
2018-08-03T13:46:10.417Z,39.01
2018-08-03T13:47:19.341Z,39.22
2018-08-03T13:48:28.004Z,40.68
2018-08-03T13:49:36.661Z,39.22
2018-08-03T13:50:45.583Z,39.41
2018-08-03T13:51:54.245Z,36.57
2018-08-03T13:53:02.901Z,38.12
2018-08-03T13:54:11.562Z,39.31
2018-08-03T13:55:20.219Z,38.9
2018-08-03T13:56:28.876Z,38.31
2018-08-03T13:57:37.563Z,37.52
2018-08-03T13:58:46.906Z,36.65
2018-08-03T13:59:55.567Z,35.78
2018-08-03T14:01:04.218Z,35.97
2018-08-03T14:02:12.890Z,36.08
2018-08-03T14:03:21.548Z,36.57
2018-08-03T14:04:30.207Z,37.94
2018-08-03T14:05:38.873Z,39.01
2018-08-03T14:06:47.797Z,37.94
2018-08-03T14:07:56.453Z,37.74
2018-08-03T14:09:05.115Z,38.13
2018-08-03T14:10:13.765Z,37.84
2018-08-03T14:11:22.434Z,37.05
2018-08-03T14:12:31.097Z,35.88
2018-08-03T14:13:40.020Z,35.49
2018-08-03T14:14:48.680Z,35.97
2018-08-03T14:15:57.600Z,35.39
2018-08-03T14:17:06.257Z,35.49
2018-08-03T14:18:14.917Z,35.39
2018-08-03T14:19:23.579Z,35.21
2018-08-03T14:20:32.492Z,34.81
2018-08-03T14:21:41.150Z,33.84
2018-08-03T14:22:49.808Z,34.33
2018-08-03T14:23:58.476Z,34.72
2018-08-03T14:25:07.135Z,34.33
2018-08-03T14:26:15.791Z,33.84
2018-08-03T14:27:24.447Z,34.33
2018-08-03T14:28:33.111Z,37.07
2018-08-03T14:29:41.767Z,37.86
2018-08-03T14:30:50.427Z,37.07
2018-08-03T14:31:59.346Z,36.37
2018-08-03T14:33:08.001Z,35.19
2018-08-03T14:34:16.664Z,35.29
2018-08-03T14:35:25.323Z,34.11
2018-08-03T14:36:33.985Z,34.41
2018-08-03T14:37:42.645Z,34.8
2018-08-03T14:38:51.303Z,35
2018-08-03T14:39:59.961Z,37.45
2018-08-03T14:41:08.637Z,34.7
2018-08-03T14:42:17.563Z,34.11
2018-08-03T14:43:26.225Z,34.61
2018-08-03T14:44:34.882Z,34.41
2018-08-03T14:45:43.815Z,34.01
2018-08-03T14:46:52.468Z,33.92
2018-08-03T14:48:01.128Z,34.7
2018-08-03T14:49:09.785Z,36.47